sensor_id;sensor_type;location;lat;lon;timestamp;temperature;humidity
1165;DHT22;571;50.930;6.926;2022-09-20T04:00:59;13.10;99.90
1165;DHT22;571;50.930;6.926;2022-09-20T04:03:37;13.10;99.90
1165;DHT22;571;50.930;6.926;2022-09-20T04:06:33;13.00;99.90
1165;DHT22;571;50.930;6.926;2022-09-20T04:09:33;13.00;99.90
1165;DHT22;571;50.930;6.926;2022-09-20T04:12:08;13.10;99.90
1165;DHT22;571;50.930;6.926;2022-09-20T04:14:43;13.10;99.90
1165;DHT22;571;50.930;6.926;2022-09-20T04:17:25;13.10;99.90
1165;DHT22;571;50.930;6.926;2022-09-20T04:20:01;13.10;99.90
1165;DHT22;571;50.930;6.926;2022-09-20T04:22:30;13.00;99.90
1165;DHT22;571;50.930;6.926;2022-09-20T04:25:02;13.00;99.90
1165;DHT22;571;50.930;6.926;2022-09-20T04:27:34;13.10;99.90
1165;DHT22;571;50.930;6.926;2022-09-20T04:30:05;13.10;99.90
1165;DHT22;571;50.930;6.926;2022-09-20T04:32:40;13.30;99.90
1165;DHT22;571;50.930;6.926;2022-09-20T04:35:15;13.20;99.90
1165;DHT22;571;50.930;6.926;2022-09-20T04:38:03;13.20;99.90
1165;DHT22;571;50.930;6.926;2022-09-20T04:40:48;13.30;99.90
1165;DHT22;571;50.930;6.926;2022-09-20T04:43:57;13.20;99.90
1165;DHT22;571;50.930;6.926;2022-09-20T04:50:13;13.30;99.90
1165;DHT22;571;50.930;6.926;2022-09-20T04:53:14;13.20;99.90
1165;DHT22;571;50.930;6.926;2022-09-20T04:55:53;13.10;99.90
1165;DHT22;571;50.930;6.926;2022-09-20T04:58:34;13.20;99.90
1165;DHT22;571;50.930;6.926;2022-09-20T05:04:42;13.20;99.90
1165;DHT22;571;50.930;6.926;2022-09-20T05:07:50;13.30;99.90
1165;DHT22;571;50.930;6.926;2022-09-20T05:10:45;13.10;99.90
1165;DHT22;571;50.930;6.926;2022-09-20T05:13:29;13.10;99.90
1165;DHT22;571;50.930;6.926;2022-09-20T05:16:01;13.20;99.90
1165;DHT22;571;50.930;6.926;2022-09-20T05:18:52;13.10;99.90
1165;DHT22;571;50.930;6.926;2022-09-20T05:21:38;13.10;99.90
1165;DHT22;571;50.930;6.926;2022-09-20T05:24:24;13.10;99.90
1165;DHT22;571;50.930;6.926;2022-09-20T05:27:10;13.00;99.90
1165;DHT22;571;50.930;6.926;2022-09-20T05:29:48;13.00;99.90
1165;DHT22;571;50.930;6.926;2022-09-20T05:32:22;13.00;99.90
1165;DHT22;571;50.930;6.926;2022-09-20T05:34:55;12.90;99.90
1165;DHT22;571;50.930;6.926;2022-09-20T05:37:31;12.90;99.90
1165;DHT22;571;50.930;6.926;2022-09-20T05:40:05;12.90;99.90
1165;DHT22;571;50.930;6.926;2022-09-20T05:42:41;12.90;99.90
1165;DHT22;571;50.930;6.926;2022-09-20T05:45:28;12.90;99.90
1165;DHT22;571;50.930;6.926;2022-09-20T05:48:08;12.90;99.90
1165;DHT22;571;50.930;6.926;2022-09-20T05:50:44;12.90;99.90
1165;DHT22;571;50.930;6.926;2022-09-20T05:53:45;12.90;99.90
1165;DHT22;571;50.930;6.926;2022-09-20T05:56:25;13.00;99.90
1165;DHT22;571;50.930;6.926;2022-09-20T05:59:12;13.10;99.90
1165;DHT22;571;50.930;6.926;2022-09-20T06:01:43;13.10;99.90
1165;DHT22;571;50.930;6.926;2022-09-20T06:04:15;13.20;99.90
1165;DHT22;571;50.930;6.926;2022-09-20T06:06:53;13.30;99.90
1165;DHT22;571;50.930;6.926;2022-09-20T06:09:44;13.30;99.90
1165;DHT22;571;50.930;6.926;2022-09-20T06:12:37;13.50;99.90
1165;DHT22;571;50.930;6.926;2022-09-20T06:15:14;13.50;99.90
1165;DHT22;571;50.930;6.926;2022-09-20T06:17:52;13.40;99.90
1165;DHT22;571;50.930;6.926;2022-09-20T06:20:26;13.50;99.90
1165;DHT22;571;50.930;6.926;2022-09-20T06:22:54;13.40;99.90
1165;DHT22;571;50.930;6.926;2022-09-20T06:25:26;13.20;99.90
1165;DHT22;571;50.930;6.926;2022-09-20T06:27:59;13.20;99.90
1165;DHT22;571;50.930;6.926;2022-09-20T06:30:29;13.20;99.90
1165;DHT22;571;50.930;6.926;2022-09-20T06:32:58;13.20;99.90
1165;DHT22;571;50.930;6.926;2022-09-20T06:35:30;13.30;99.90
1165;DHT22;571;50.930;6.926;2022-09-20T06:38:12;13.50;99.90
1165;DHT22;571;50.930;6.926;2022-09-20T06:40:58;13.40;99.90
1165;DHT22;571;50.930;6.926;2022-09-20T06:43:40;13.40;99.90
1165;DHT22;571;50.930;6.926;2022-09-20T06:46:07;13.20;99.90
1165;DHT22;571;50.930;6.926;2022-09-20T06:48:35;13.30;99.90
1165;DHT22;571;50.930;6.926;2022-09-20T06:51:04;13.30;99.90
1165;DHT22;571;50.930;6.926;2022-09-20T06:53:32;13.30;99.90
1165;DHT22;571;50.930;6.926;2022-09-20T06:56:01;13.40;99.90
1165;DHT22;571;50.930;6.926;2022-09-20T06:58:27;13.50;99.90
1165;DHT22;571;50.930;6.926;2022-09-20T07:00:55;13.50;99.90
1165;DHT22;571;50.930;6.926;2022-09-20T07:03:22;13.50;99.90
1165;DHT22;571;50.930;6.926;2022-09-20T07:05:49;13.50;99.90
1165;DHT22;571;50.930;6.926;2022-09-20T07:10:43;13.50;99.90
1165;DHT22;571;50.930;6.926;2022-09-20T07:13:10;13.60;99.90
1165;DHT22;571;50.930;6.926;2022-09-20T07:15:38;13.60;99.90
1165;DHT22;571;50.930;6.926;2022-09-20T07:18:06;13.80;99.90
1165;DHT22;571;50.930;6.926;2022-09-20T07:20:33;13.80;99.90
1165;DHT22;571;50.930;6.926;2022-09-20T07:23:00;13.80;99.90
1165;DHT22;571;50.930;6.926;2022-09-20T07:25:27;13.80;99.90
1165;DHT22;571;50.930;6.926;2022-09-20T07:27:54;13.80;99.90
1165;DHT22;571;50.930;6.926;2022-09-20T07:30:22;13.90;99.90
1165;DHT22;571;50.930;6.926;2022-09-20T07:32:48;14.10;99.90
1165;DHT22;571;50.930;6.926;2022-09-20T07:35:17;14.10;99.90
1165;DHT22;571;50.930;6.926;2022-09-20T07:37:43;14.20;99.90
1165;DHT22;571;50.930;6.926;2022-09-20T07:40:10;14.30;99.90
1165;DHT22;571;50.930;6.926;2022-09-20T07:42:37;14.10;99.90
1165;DHT22;571;50.930;6.926;2022-09-20T07:45:05;14.20;99.90
1165;DHT22;571;50.930;6.926;2022-09-20T07:47:32;14.30;99.90
1165;DHT22;571;50.930;6.926;2022-09-20T07:50:00;14.30;99.90
1165;DHT22;571;50.930;6.926;2022-09-20T07:52:28;14.30;99.90
1165;DHT22;571;50.930;6.926;2022-09-20T07:54:55;14.30;99.90
1165;DHT22;571;50.930;6.926;2022-09-20T07:57:22;14.50;99.90
1165;DHT22;571;50.930;6.926;2022-09-20T07:59:48;14.70;99.90
1165;DHT22;571;50.930;6.926;2022-09-20T08:02:15;14.70;99.90
1165;DHT22;571;50.930;6.926;2022-09-20T08:04:42;14.80;99.90
1165;DHT22;571;50.930;6.926;2022-09-20T08:07:08;14.90;99.90
1165;DHT22;571;50.930;6.926;2022-09-20T08:09:38;14.90;99.90
1165;DHT22;571;50.930;6.926;2022-09-20T08:12:05;14.90;99.90
1165;DHT22;571;50.930;6.926;2022-09-20T08:14:33;15.00;99.90
1165;DHT22;571;50.930;6.926;2022-09-20T08:16:59;15.10;99.90
1165;DHT22;571;50.930;6.926;2022-09-20T08:19:26;15.10;99.80
1165;DHT22;571;50.930;6.926;2022-09-20T08:21:55;15.10;99.20
1165;DHT22;571;50.930;6.926;2022-09-20T08:24:21;15.10;99.90
1165;DHT22;571;50.930;6.926;2022-09-20T08:26:51;15.20;99.60
1165;DHT22;571;50.930;6.926;2022-09-20T08:29:18;15.30;99.70
1165;DHT22;571;50.930;6.926;2022-09-20T08:31:45;15.20;99.20
1165;DHT22;571;50.930;6.926;2022-09-20T08:34:13;15.20;99.30
1165;DHT22;571;50.930;6.926;2022-09-20T08:36:42;15.40;99.40
1165;DHT22;571;50.930;6.926;2022-09-20T08:39:10;15.30;99.50
1165;DHT22;571;50.930;6.926;2022-09-20T08:41:41;15.40;99.40
1165;DHT22;571;50.930;6.926;2022-09-20T08:44:15;15.50;99.40
1165;DHT22;571;50.930;6.926;2022-09-20T08:46:47;15.60;99.10
1165;DHT22;571;50.930;6.926;2022-09-20T08:49:21;15.60;98.30
1165;DHT22;571;50.930;6.926;2022-09-20T08:51:50;15.70;98.10
1165;DHT22;571;50.930;6.926;2022-09-20T08:54:17;15.70;97.50
1165;DHT22;571;50.930;6.926;2022-09-20T08:56:44;15.70;97.50
1165;DHT22;571;50.930;6.926;2022-09-20T08:59:17;15.60;97.00
1165;DHT22;571;50.930;6.926;2022-09-20T09:01:45;15.70;98.30
1165;DHT22;571;50.930;6.926;2022-09-20T09:04:15;15.80;98.20
1165;DHT22;571;50.930;6.926;2022-09-20T09:06:42;15.80;97.10
1165;DHT22;571;50.930;6.926;2022-09-20T09:09:16;15.80;97.80
1165;DHT22;571;50.930;6.926;2022-09-20T09:11:44;15.80;97.40
1165;DHT22;571;50.930;6.926;2022-09-20T09:14:22;15.80;97.40
1165;DHT22;571;50.930;6.926;2022-09-20T09:17:08;15.80;97.20
1165;DHT22;571;50.930;6.926;2022-09-20T09:19:42;15.90;96.50
1165;DHT22;571;50.930;6.926;2022-09-20T09:22:09;15.90;95.60
1165;DHT22;571;50.930;6.926;2022-09-20T09:24:37;16.10;96.70
1165;DHT22;571;50.930;6.926;2022-09-20T09:27:06;16.10;95.50
1165;DHT22;571;50.930;6.926;2022-09-20T09:29:48;16.10;95.90
1165;DHT22;571;50.930;6.926;2022-09-20T09:32:23;16.20;96.10
1165;DHT22;571;50.930;6.926;2022-09-20T09:34:51;16.30;95.60
1165;DHT22;571;50.930;6.926;2022-09-20T09:37:26;16.40;95.00
1165;DHT22;571;50.930;6.926;2022-09-20T09:40:07;16.50;94.70
1165;DHT22;571;50.930;6.926;2022-09-20T09:42:34;16.50;95.30
1165;DHT22;571;50.930;6.926;2022-09-20T09:45:23;16.70;95.70
1165;DHT22;571;50.930;6.926;2022-09-20T09:47:51;16.70;95.20
1165;DHT22;571;50.930;6.926;2022-09-20T09:50:22;16.70;94.40
1165;DHT22;571;50.930;6.926;2022-09-20T09:52:57;16.70;94.40
1165;DHT22;571;50.930;6.926;2022-09-20T09:55:34;16.70;94.50
1165;DHT22;571;50.930;6.926;2022-09-20T09:58:07;16.70;93.90
1165;DHT22;571;50.930;6.926;2022-09-20T10:00:38;16.70;94.30
1165;DHT22;571;50.930;6.926;2022-09-20T10:03:34;16.80;94.50
1165;DHT22;571;50.930;6.926;2022-09-20T10:06:11;16.60;93.00
1165;DHT22;571;50.930;6.926;2022-09-20T10:08:47;16.70;92.50
1165;DHT22;571;50.930;6.926;2022-09-20T10:11:29;16.70;90.80
1165;DHT22;571;50.930;6.926;2022-09-20T10:14:09;16.60;91.70
1165;DHT22;571;50.930;6.926;2022-09-20T10:16:56;16.40;92.10
1165;DHT22;571;50.930;6.926;2022-09-20T10:19:39;16.30;92.40
1165;DHT22;571;50.930;6.926;2022-09-20T10:22:13;16.20;91.20
1165;DHT22;571;50.930;6.926;2022-09-20T10:24:49;16.10;92.30
1165;DHT22;571;50.930;6.926;2022-09-20T10:27:33;16.20;92.80
1165;DHT22;571;50.930;6.926;2022-09-20T10:30:07;16.10;91.90
1165;DHT22;571;50.930;6.926;2022-09-20T10:32:52;16.30;92.50
1165;DHT22;571;50.930;6.926;2022-09-20T10:35:28;16.30;92.30
1165;DHT22;571;50.930;6.926;2022-09-20T10:38:14;16.40;92.70
1165;DHT22;571;50.930;6.926;2022-09-20T10:40:57;16.50;92.40
1165;DHT22;571;50.930;6.926;2022-09-20T10:43:57;16.70;93.10
1165;DHT22;571;50.930;6.926;2022-09-20T10:46:34;16.90;92.60
1165;DHT22;571;50.930;6.926;2022-09-20T10:49:16;17.10;92.60
1165;DHT22;571;50.930;6.926;2022-09-20T10:51:57;18.60;94.90
1165;DHT22;571;50.930;6.926;2022-09-20T10:54:33;17.10;91.70
1165;DHT22;571;50.930;6.926;2022-09-20T10:57:15;17.20;90.20
1165;DHT22;571;50.930;6.926;2022-09-20T10:59:50;17.00;85.00
1165;DHT22;571;50.930;6.926;2022-09-20T11:02:31;17.10;89.60
1165;DHT22;571;50.930;6.926;2022-09-20T11:05:29;17.00;87.70
1165;DHT22;571;50.930;6.926;2022-09-20T11:08:05;17.00;90.30
1165;DHT22;571;50.930;6.926;2022-09-20T11:10:36;17.10;89.30
1165;DHT22;571;50.930;6.926;2022-09-20T11:13:09;17.10;87.30
1165;DHT22;571;50.930;6.926;2022-09-20T11:15:41;16.80;88.20
1165;DHT22;571;50.930;6.926;2022-09-20T11:18:15;16.80;89.50
1165;DHT22;571;50.930;6.926;2022-09-20T11:20:55;16.80;90.30
1165;DHT22;571;50.930;6.926;2022-09-20T11:23:23;16.70;91.30
1165;DHT22;571;50.930;6.926;2022-09-20T11:25:56;16.70;91.60
1165;DHT22;571;50.930;6.926;2022-09-20T11:28:29;16.60;89.90
1165;DHT22;571;50.930;6.926;2022-09-20T11:31:02;16.60;90.60
1165;DHT22;571;50.930;6.926;2022-09-20T11:33:33;16.40;91.10
1165;DHT22;571;50.930;6.926;2022-09-20T11:36:07;16.50;91.90
1165;DHT22;571;50.930;6.926;2022-09-20T11:38:39;16.40;92.50
1165;DHT22;571;50.930;6.926;2022-09-20T11:41:12;16.40;93.30
1165;DHT22;571;50.930;6.926;2022-09-20T11:43:40;16.40;93.80
1165;DHT22;571;50.930;6.926;2022-09-20T11:46:11;16.20;94.00
1165;DHT22;571;50.930;6.926;2022-09-20T11:48:42;16.20;94.30
1165;DHT22;571;50.930;6.926;2022-09-20T11:57:11;15.90;95.40
1165;DHT22;571;50.930;6.926;2022-09-20T11:59:41;16.00;95.50
1165;DHT22;571;50.930;6.926;2022-09-20T12:02:15;16.10;95.30
1165;DHT22;571;50.930;6.926;2022-09-20T12:04:45;16.20;95.90
1165;DHT22;571;50.930;6.926;2022-09-20T12:07:18;16.10;96.30
1165;DHT22;571;50.930;6.926;2022-09-20T12:09:51;16.00;95.50
1165;DHT22;571;50.930;6.926;2022-09-20T12:12:30;16.20;95.60
1165;DHT22;571;50.930;6.926;2022-09-20T12:14:59;16.20;94.80
1165;DHT22;571;50.930;6.926;2022-09-20T12:18:02;16.20;94.40
1165;DHT22;571;50.930;6.926;2022-09-20T12:21:04;16.20;94.60
1165;DHT22;571;50.930;6.926;2022-09-20T12:26:45;16.40;94.50
1165;DHT22;571;50.930;6.926;2022-09-20T12:32:44;16.60;93.30
1165;DHT22;571;50.930;6.926;2022-09-20T12:35:50;16.60;93.70
1165;DHT22;571;50.930;6.926;2022-09-20T12:38:26;16.90;93.90
1165;DHT22;571;50.930;6.926;2022-09-20T12:41:13;17.20;92.10
1165;DHT22;571;50.930;6.926;2022-09-20T12:43:59;17.70;92.10
1165;DHT22;571;50.930;6.926;2022-09-20T12:46:40;18.10;92.70
1165;DHT22;571;50.930;6.926;2022-09-20T12:49:26;18.40;89.50
1165;DHT22;571;50.930;6.926;2022-09-20T12:52:29;18.60;88.40
1165;DHT22;571;50.930;6.926;2022-09-20T12:55:30;19.00;84.70
1165;DHT22;571;50.930;6.926;2022-09-20T12:58:01;18.90;84.30
1165;DHT22;571;50.930;6.926;2022-09-20T13:00:35;18.70;85.50
1165;DHT22;571;50.930;6.926;2022-09-20T13:03:21;18.70;84.30
1165;DHT22;571;50.930;6.926;2022-09-20T13:05:49;18.80;85.60
1165;DHT22;571;50.930;6.926;2022-09-20T13:08:18;18.80;86.90
1165;DHT22;571;50.930;6.926;2022-09-20T13:10:48;19.00;85.20
1165;DHT22;571;50.930;6.926;2022-09-20T13:13:30;19.10;84.10
1165;DHT22;571;50.930;6.926;2022-09-20T13:15:59;19.30;84.20
1165;DHT22;571;50.930;6.926;2022-09-20T13:18:30;19.40;86.30
1165;DHT22;571;50.930;6.926;2022-09-20T13:20:58;19.20;83.60
1165;DHT22;571;50.930;6.926;2022-09-20T13:23:36;19.10;85.80
1165;DHT22;571;50.930;6.926;2022-09-20T13:26:09;19.00;86.60
1165;DHT22;571;50.930;6.926;2022-09-20T13:28:44;18.60;85.90
1165;DHT22;571;50.930;6.926;2022-09-20T13:31:25;18.50;89.10
1165;DHT22;571;50.930;6.926;2022-09-20T13:33:52;18.40;88.00
1165;DHT22;571;50.930;6.926;2022-09-20T13:36:24;18.20;87.80
1165;DHT22;571;50.930;6.926;2022-09-20T13:38:52;18.10;86.70
1165;DHT22;571;50.930;6.926;2022-09-20T13:41:20;18.00;88.90
1165;DHT22;571;50.930;6.926;2022-09-20T13:43:48;18.00;90.00
1165;DHT22;571;50.930;6.926;2022-09-20T13:46:22;18.00;89.70
1165;DHT22;571;50.930;6.926;2022-09-20T13:48:53;17.90;90.50
1165;DHT22;571;50.930;6.926;2022-09-20T13:51:26;18.40;96.60
1165;DHT22;571;50.930;6.926;2022-09-20T13:53:53;18.10;90.30
1165;DHT22;571;50.930;6.926;2022-09-20T13:56:40;18.10;90.20
1165;DHT22;571;50.930;6.926;2022-09-20T13:59:09;18.30;90.30
1165;DHT22;571;50.930;6.926;2022-09-20T14:01:43;18.40;89.30
1165;DHT22;571;50.930;6.926;2022-09-20T14:04:14;18.30;86.20
1165;DHT22;571;50.930;6.926;2022-09-20T14:06:42;18.10;85.40
1165;DHT22;571;50.930;6.926;2022-09-20T14:09:26;18.00;87.00
1165;DHT22;571;50.930;6.926;2022-09-20T14:11:54;17.90;84.80
1165;DHT22;571;50.930;6.926;2022-09-20T14:14:23;18.00;86.60
1165;DHT22;571;50.930;6.926;2022-09-20T14:16:53;18.10;88.70
1165;DHT22;571;50.930;6.926;2022-09-20T14:19:26;18.20;85.50
1165;DHT22;571;50.930;6.926;2022-09-20T14:21:55;18.20;86.50
1165;DHT22;571;50.930;6.926;2022-09-20T14:24:26;18.10;89.10
1165;DHT22;571;50.930;6.926;2022-09-20T14:27:15;18.20;89.20
1165;DHT22;571;50.930;6.926;2022-09-20T14:29:43;18.00;89.30
1165;DHT22;571;50.930;6.926;2022-09-20T14:32:24;17.80;87.90
1165;DHT22;571;50.930;6.926;2022-09-20T14:34:59;17.80;89.30
1165;DHT22;571;50.930;6.926;2022-09-20T14:37:29;18.00;90.70
1165;DHT22;571;50.930;6.926;2022-09-20T14:39:59;18.20;89.50
1165;DHT22;571;50.930;6.926;2022-09-20T14:42:30;18.30;86.60
1165;DHT22;571;50.930;6.926;2022-09-20T14:44:59;18.20;85.90
1165;DHT22;571;50.930;6.926;2022-09-20T14:47:35;18.50;90.30
1165;DHT22;571;50.930;6.926;2022-09-20T14:50:03;18.80;85.30
1165;DHT22;571;50.930;6.926;2022-09-20T14:52:35;19.00;83.30
1165;DHT22;571;50.930;6.926;2022-09-20T14:55:16;19.40;85.60
1165;DHT22;571;50.930;6.926;2022-09-20T14:57:44;19.40;80.20
1165;DHT22;571;50.930;6.926;2022-09-20T15:00:14;19.10;84.00
1165;DHT22;571;50.930;6.926;2022-09-20T15:02:43;19.00;85.00
1165;DHT22;571;50.930;6.926;2022-09-20T15:05:19;18.80;83.40
1165;DHT22;571;50.930;6.926;2022-09-20T15:07:46;18.60;86.00
1165;DHT22;571;50.930;6.926;2022-09-20T15:10:13;18.40;84.20
1165;DHT22;571;50.930;6.926;2022-09-20T15:12:40;18.20;83.90
1165;DHT22;571;50.930;6.926;2022-09-20T15:15:10;17.90;85.70
1165;DHT22;571;50.930;6.926;2022-09-20T15:17:39;17.60;83.60
1165;DHT22;571;50.930;6.926;2022-09-20T15:20:12;17.50;86.60
1165;DHT22;571;50.930;6.926;2022-09-20T15:22:39;17.60;86.60
1165;DHT22;571;50.930;6.926;2022-09-20T15:25:07;17.70;88.40
1165;DHT22;571;50.930;6.926;2022-09-20T15:27:38;17.90;87.10
1165;DHT22;571;50.930;6.926;2022-09-20T15:30:07;18.00;89.60
1165;DHT22;571;50.930;6.926;2022-09-20T15:32:34;18.20;88.90
1165;DHT22;571;50.930;6.926;2022-09-20T15:35:01;18.20;88.10
1165;DHT22;571;50.930;6.926;2022-09-20T15:37:29;18.20;90.40
1165;DHT22;571;50.930;6.926;2022-09-20T15:39:56;18.00;86.40
1165;DHT22;571;50.930;6.926;2022-09-20T15:42:23;17.80;83.70
1165;DHT22;571;50.930;6.926;2022-09-20T15:44:50;17.80;89.20
1165;DHT22;571;50.930;6.926;2022-09-20T15:47:17;18.00;90.40
1165;DHT22;571;50.930;6.926;2022-09-20T15:49:48;17.80;85.70
1165;DHT22;571;50.930;6.926;2022-09-20T15:52:14;17.70;88.00
1165;DHT22;571;50.930;6.926;2022-09-20T15:54:42;17.50;86.50
1165;DHT22;571;50.930;6.926;2022-09-20T15:57:10;17.60;85.90
1165;DHT22;571;50.930;6.926;2022-09-20T15:59:37;17.60;85.00
1165;DHT22;571;50.930;6.926;2022-09-20T16:02:03;17.70;89.80
1165;DHT22;571;50.930;6.926;2022-09-20T16:04:30;17.90;89.00
1165;DHT22;571;50.930;6.926;2022-09-20T16:06:59;17.70;82.40
1165;DHT22;571;50.930;6.926;2022-09-20T16:09:25;17.60;86.20
1165;DHT22;571;50.930;6.926;2022-09-20T16:11:53;17.50;88.40
1165;DHT22;571;50.930;6.926;2022-09-20T16:14:23;17.40;83.80
1165;DHT22;571;50.930;6.926;2022-09-20T16:16:50;17.40;82.40
1165;DHT22;571;50.930;6.926;2022-09-20T16:19:17;17.40;85.30
1165;DHT22;571;50.930;6.926;2022-09-20T16:21:46;17.40;87.50
1165;DHT22;571;50.930;6.926;2022-09-20T16:24:14;17.40;86.80
1165;DHT22;571;50.930;6.926;2022-09-20T16:26:42;17.40;89.70
1165;DHT22;571;50.930;6.926;2022-09-20T16:29:10;17.50;84.40
1165;DHT22;571;50.930;6.926;2022-09-20T16:31:38;17.50;84.00
1165;DHT22;571;50.930;6.926;2022-09-20T16:34:10;17.50;85.90
1165;DHT22;571;50.930;6.926;2022-09-20T16:36:38;17.40;84.70
1165;DHT22;571;50.930;6.926;2022-09-20T16:39:06;17.70;88.60
1165;DHT22;571;50.930;6.926;2022-09-20T16:41:33;17.80;84.60
1165;DHT22;571;50.930;6.926;2022-09-20T16:44:00;17.60;85.40
1165;DHT22;571;50.930;6.926;2022-09-20T16:46:29;17.50;86.10
1165;DHT22;571;50.930;6.926;2022-09-20T16:48:57;17.40;81.90
1165;DHT22;571;50.930;6.926;2022-09-20T16:51:30;17.50;85.40
1165;DHT22;571;50.930;6.926;2022-09-20T16:54:00;17.50;85.60
1165;DHT22;571;50.930;6.926;2022-09-20T16:56:29;17.60;84.80
1165;DHT22;571;50.930;6.926;2022-09-20T16:58:56;17.40;84.60
1165;DHT22;571;50.930;6.926;2022-09-20T17:01:22;17.40;83.90
1165;DHT22;571;50.930;6.926;2022-09-20T17:03:51;17.20;87.10
1165;DHT22;571;50.930;6.926;2022-09-20T17:06:17;17.20;84.20
1165;DHT22;571;50.930;6.926;2022-09-20T17:08:45;17.20;84.50
1165;DHT22;571;50.930;6.926;2022-09-20T17:11:14;17.20;85.70
1165;DHT22;571;50.930;6.926;2022-09-20T17:13:42;17.20;84.10
1165;DHT22;571;50.930;6.926;2022-09-20T17:16:11;17.10;88.80
1165;DHT22;571;50.930;6.926;2022-09-20T17:18:38;17.10;88.20
1165;DHT22;571;50.930;6.926;2022-09-20T17:21:10;17.20;85.20
1165;DHT22;571;50.930;6.926;2022-09-20T17:23:39;17.10;85.80
1165;DHT22;571;50.930;6.926;2022-09-20T17:26:07;17.00;87.80
1165;DHT22;571;50.930;6.926;2022-09-20T17:28:36;17.00;85.90
1165;DHT22;571;50.930;6.926;2022-09-20T17:31:03;16.90;85.40
1165;DHT22;571;50.930;6.926;2022-09-20T17:33:31;16.70;84.50
1165;DHT22;571;50.930;6.926;2022-09-20T17:35:59;16.60;85.80
1165;DHT22;571;50.930;6.926;2022-09-20T17:38:29;16.50;84.40
1165;DHT22;571;50.930;6.926;2022-09-20T17:40:59;16.70;87.50
1165;DHT22;571;50.930;6.926;2022-09-20T17:43:26;16.70;85.50
1165;DHT22;571;50.930;6.926;2022-09-20T17:45:54;16.70;84.60
1165;DHT22;571;50.930;6.926;2022-09-20T17:48:21;16.60;85.00
1165;DHT22;571;50.930;6.926;2022-09-20T17:50:54;16.50;85.70
1165;DHT22;571;50.930;6.926;2022-09-20T17:53:20;16.40;90.00
1165;DHT22;571;50.930;6.926;2022-09-20T17:55:53;16.60;86.40
1165;DHT22;571;50.930;6.926;2022-09-20T17:58:20;16.50;86.00
1165;DHT22;571;50.930;6.926;2022-09-20T18:00:47;16.40;89.30
1165;DHT22;571;50.930;6.926;2022-09-20T18:03:14;16.40;87.80
1165;DHT22;571;50.930;6.926;2022-09-20T18:05:41;16.30;88.90
1165;DHT22;571;50.930;6.926;2022-09-20T18:08:08;16.30;89.10
1165;DHT22;571;50.930;6.926;2022-09-20T18:10:34;16.20;88.40
1165;DHT22;571;50.930;6.926;2022-09-20T18:13:02;16.10;89.60
1165;DHT22;571;50.930;6.926;2022-09-20T18:15:31;16.00;90.70
1165;DHT22;571;50.930;6.926;2022-09-20T18:17:58;16.00;90.30
1165;DHT22;571;50.930;6.926;2022-09-20T18:20:26;16.10;92.20
1165;DHT22;571;50.930;6.926;2022-09-20T18:22:53;15.90;90.70
1165;DHT22;571;50.930;6.926;2022-09-20T18:25:20;15.70;91.10
1165;DHT22;571;50.930;6.926;2022-09-20T18:27:48;15.60;91.60
1165;DHT22;571;50.930;6.926;2022-09-20T18:30:16;15.50;92.50
1165;DHT22;571;50.930;6.926;2022-09-20T18:32:48;15.40;92.70
1165;DHT22;571;50.930;6.926;2022-09-20T18:35:15;15.40;93.60
1165;DHT22;571;50.930;6.926;2022-09-20T18:37:42;15.30;92.80
1165;DHT22;571;50.930;6.926;2022-09-20T18:40:09;15.30;93.50
1165;DHT22;571;50.930;6.926;2022-09-20T18:42:36;15.30;93.20
1165;DHT22;571;50.930;6.926;2022-09-20T18:45:04;15.20;94.00
1165;DHT22;571;50.930;6.926;2022-09-20T18:47:32;15.20;94.30
1165;DHT22;571;50.930;6.926;2022-09-20T18:49:59;15.20;93.60
1165;DHT22;571;50.930;6.926;2022-09-20T18:52:26;15.10;94.40
1165;DHT22;571;50.930;6.926;2022-09-20T18:54:54;15.10;94.50
1165;DHT22;571;50.930;6.926;2022-09-20T18:57:21;15.10;94.50
1165;DHT22;571;50.930;6.926;2022-09-20T18:59:48;15.10;94.90
1165;DHT22;571;50.930;6.926;2022-09-20T19:05:27;15.10;95.90
1165;DHT22;571;50.930;6.926;2022-09-20T19:08:03;15.10;95.00
1165;DHT22;571;50.930;6.926;2022-09-20T19:10:38;15.00;95.40
1165;DHT22;571;50.930;6.926;2022-09-20T19:13:19;15.00;95.70
1165;DHT22;571;50.930;6.926;2022-09-20T19:16:14;15.00;95.90
1165;DHT22;571;50.930;6.926;2022-09-20T19:19:07;15.00;95.80
1165;DHT22;571;50.930;6.926;2022-09-20T19:21:41;15.20;95.90
1165;DHT22;571;50.930;6.926;2022-09-20T19:24:21;15.10;95.20
1165;DHT22;571;50.930;6.926;2022-09-20T19:26:50;15.00;95.30
1165;DHT22;571;50.930;6.926;2022-09-20T19:29:18;14.90;95.10
1165;DHT22;571;50.930;6.926;2022-09-20T19:31:47;14.90;95.80
1165;DHT22;571;50.930;6.926;2022-09-20T19:34:17;14.80;95.80
1165;DHT22;571;50.930;6.926;2022-09-20T19:36:53;14.80;96.20
1165;DHT22;571;50.930;6.926;2022-09-20T19:39:26;14.80;96.50
1165;DHT22;571;50.930;6.926;2022-09-20T19:42:00;14.70;96.60
1165;DHT22;571;50.930;6.926;2022-09-20T19:44:34;14.70;96.90
1165;DHT22;571;50.930;6.926;2022-09-20T19:47:14;14.70;97.30
1165;DHT22;571;50.930;6.926;2022-09-20T19:49:51;14.70;97.20
1165;DHT22;571;50.930;6.926;2022-09-20T19:52:21;14.70;97.70
1165;DHT22;571;50.930;6.926;2022-09-20T19:54:49;14.60;97.50
1165;DHT22;571;50.930;6.926;2022-09-20T19:57:18;14.60;97.20
1165;DHT22;571;50.930;6.926;2022-09-20T19:59:46;14.60;97.40
1165;DHT22;571;50.930;6.926;2022-09-20T20:02:14;14.60;97.60
1165;DHT22;571;50.930;6.926;2022-09-20T20:04:41;14.60;97.70
1165;DHT22;571;50.930;6.926;2022-09-20T20:07:17;14.60;97.40
1165;DHT22;571;50.930;6.926;2022-09-20T20:09:51;14.60;97.80
1165;DHT22;571;50.930;6.926;2022-09-20T20:12:24;14.50;97.60
1165;DHT22;571;50.930;6.926;2022-09-20T20:15:02;14.50;97.80
1165;DHT22;571;50.930;6.926;2022-09-20T20:17:43;14.40;98.20
1165;DHT22;571;50.930;6.926;2022-09-20T20:20:17;14.40;98.20
1165;DHT22;571;50.930;6.926;2022-09-20T20:23:23;14.30;98.60
1165;DHT22;571;50.930;6.926;2022-09-20T20:26:01;14.30;98.60
1165;DHT22;571;50.930;6.926;2022-09-20T20:28:30;14.10;98.60
1165;DHT22;571;50.930;6.926;2022-09-20T20:30:58;14.10;98.90
1165;DHT22;571;50.930;6.926;2022-09-20T20:33:26;14.00;98.80
1165;DHT22;571;50.930;6.926;2022-09-20T20:35:54;14.00;99.20
1165;DHT22;571;50.930;6.926;2022-09-20T20:38:21;14.00;99.60
1165;DHT22;571;50.930;6.926;2022-09-20T20:40:58;13.90;99.50
1165;DHT22;571;50.930;6.926;2022-09-20T20:43:28;13.90;99.60
1165;DHT22;571;50.930;6.926;2022-09-20T20:45:55;13.90;99.70
1165;DHT22;571;50.930;6.926;2022-09-20T20:48:22;13.80;99.60
1165;DHT22;571;50.930;6.926;2022-09-20T20:50:58;13.80;99.70
1165;DHT22;571;50.930;6.926;2022-09-20T20:53:28;13.70;99.90
1165;DHT22;571;50.930;6.926;2022-09-20T20:56:00;13.70;99.90
1165;DHT22;571;50.930;6.926;2022-09-20T20:58:28;13.60;99.90
1165;DHT22;571;50.930;6.926;2022-09-20T21:01:04;13.70;99.90
1165;DHT22;571;50.930;6.926;2022-09-20T21:03:30;14.00;99.90
1165;DHT22;571;50.930;6.926;2022-09-20T21:05:58;13.90;99.60
1165;DHT22;571;50.930;6.926;2022-09-20T21:08:29;13.70;99.90
1165;DHT22;571;50.930;6.926;2022-09-20T21:11:01;13.60;99.90
1165;DHT22;571;50.930;6.926;2022-09-20T21:13:28;13.50;99.90
1165;DHT22;571;50.930;6.926;2022-09-20T21:16:05;13.50;99.90
1165;DHT22;571;50.930;6.926;2022-09-20T21:18:32;13.40;99.90
1165;DHT22;571;50.930;6.926;2022-09-20T21:20:59;13.40;99.90